Forecasts are only available for sites displaying the forecast symbol.

Some water levels are actually in metres AHD (Australian Height Datum), click individual sites for more details.

Scroll for more >

River gauges, storages, and weirs in the Murray–Darling Basin

Type Locationsort descending River Water level Flow Volume Release Water temp Salinity Rainfall
River Gauge Albury (Union Bridge) Murray 1.44 m 20/10/2019 18:00 Not measured Not measured Not measured 15.1°C 20/10/2019 18:00 46.1 μS/cm 20/10/2019 18:00 Not measured Full data
River Gauge Balranald Murrumbidgee 1.84 m 20/10/2019 17:45 1423 ML/Day 20/10/2019 17:45 Not measured Not measured 18.8°C 20/10/2019 17:45 132.0 μS/cm 20/10/2019 17:45 Not measured Full data
River Gauge Bandiana Kiewa 1.42 m 20/10/2019 17:45 1047 ML/Day 20/10/2019 17:45 Not measured Not measured 15.1°C 20/10/2019 17:45 30.5 μS/cm 20/10/2019 17:45 Not measured Full data
River Gauge Barmah Choke Murray 2.89 m 20/10/2019 17:45 9054 ML/Day 20/10/2019 17:45 Not measured Not measured Not measured Not measured Not measured Full data
River Gauge Biggara Murray 0.5 m 20/10/2019 18:00 620 ML/Day 20/10/2019 18:00 Not measured Not measured 12.7°C 20/10/2019 18:00 44.5 μS/cm 20/10/2019 18:00 0.0 mm 20/10/2019 9:00 Full data
River Gauge Bringenbrong Bridge Murray 1.1 m 20/10/2019 18:00 1532 ML/Day 20/10/2019 18:00 Not measured Not measured Not measured Not measured Not measured Full data
River Gauge Burtundy Darling 0.5 m 20/10/2019 17:45 1 ML/Day 20/10/2019 17:45 Not measured Not measured 22.1°C 20/10/2019 17:45 1157.8 μS/cm 3/09/2019 14:45 Not measured Full data
River Gauge Colemans Mitta 2.12 m 20/10/2019 18:30 4192 ML/Day 20/10/2019 18:30 Not measured Not measured 10.2°C 20/10/2019 17:45 39.2 μS/cm 20/10/2019 17:45 Not measured Full data
River Gauge Colignan Murray 3.28 m 20/10/2019 17:45 17106 ML/Day 20/10/2019 17:45 Not measured Not measured 19.0°C 20/10/2019 17:45 66.3 μS/cm 20/10/2019 17:45 Not measured Full data
River Gauge Corowa Murray 2.11 m 20/10/2019 18:00 8686 ML/Day 20/10/2019 18:00 Not measured Not measured 15.7°C 20/10/2019 18:00 47.5 μS/cm 20/10/2019 18:00 Not measured Full data
Storage Dartmouth Dam Mitta 455.64 m 20/10/2019 18:30 Not measured 2166 GL 20/10/2019 18:30 Not measured Not measured Not measured Not measured Full data
River Gauge Doctors Point Murray 2.42 m 20/10/2019 18:00 8394 ML/Day 20/10/2019 18:00 Not measured Not measured 15.2°C 20/10/2019 18:00 75.9 μS/cm 20/10/2019 18:00 Not measured Full data
River Gauge Echuca Wharf Murray 87.36 m 19/09/2019 23:45 Not measured Not measured Not measured Not measured Not measured Not measured Full data
River Gauge Edward Escape Wakool 0.01 m 20/10/2019 17:45 14 ML/Day 20/10/2019 17:45 Not measured Not measured 17.9°C 20/10/2019 17:45 69.4 μS/cm 20/10/2019 17:45 Not measured Full data
River Gauge Edward River Offtake Murray 2.41 m 20/10/2019 17:45 1575 ML/Day 20/10/2019 17:45 Not measured Not measured 17.8°C 20/10/2019 17:45 36.6 μS/cm 20/10/2019 17:45 Not measured Full data
Weirs Euston Weir Downstream Murray 44.48 m 20/10/2019 17:45 15414 ML/Day 20/10/2019 17:45 Not measured Not measured 17.9°C 20/10/2019 17:45 70.5 μS/cm 20/10/2019 17:45 Not measured Full data
Weirs Euston Weir Upstream Murray 48.14 m 20/10/2019 8:00 Not measured 45 GL 20/10/2019 7:45 Not measured Not measured Not measured 0.0 mm 21/02/2019 9:00 Full data
River Gauge Flow to South Australia Murray Not measured Not measured Not measured 15578.3 ML/d18/10/2019 7:45 Not measured Not measured Not measured Full data
River Gauge Frenchman Creek Murray 27.49 m 18/10/2019 7:45 Not measured Not measured 643.0 ML/d18/10/2019 7:45 Not measured Not measured Not measured Full data
River Gauge Gulpa Creek Offtake Murray 2.3 m 20/10/2019 17:45 240 ML/Day 20/10/2019 17:45 Not measured Not measured Not measured Not measured Not measured Full data
River Gauge Hinnomunjie Mitta 0.85 m 20/10/2019 17:45 814 ML/Day 20/10/2019 17:45 Not measured Not measured 10.4°C 20/10/2019 17:45 19.7 μS/cm 20/10/2019 17:45 0.0 mm 20/10/2019 9:00 Full data
Storage Hume Dam Murray 180.58 m 20/10/2019 18:00 Not measured 1199 GL 20/10/2019 18:00 6995.0 ML/d20/10/2019 8:00 Not measured Not measured 0.0 mm 20/10/2019 9:00 Full data
River Gauge Jingellic Murray 1.37 m 20/10/2019 17:45 2288 ML/Day 20/10/2019 17:45 Not measured Not measured 16.3°C 20/10/2019 17:45 35.1 μS/cm 20/10/2019 17:45 0.0 mm 20/10/2019 9:00 Full data
River Gauge Kerang Loddon 0.35 m 20/10/2019 17:45 140 ML/Day 20/10/2019 17:45 Not measured Not measured 17.3°C 20/10/2019 17:45 88.0 μS/cm 20/10/2019 17:45 Not measured Full data
River Gauge Lake Albert Murray 0.93 m 20/10/2019 5:45 Not measured 287 GL 16/10/2019 5:45 Not measured Not measured Not measured Not measured Full data
River Gauge Lake Alexandrina Murray 0.86 m 20/10/2019 5:45 Not measured 1675 GL 17/10/2019 5:45 Not measured Not measured 904.5 μS/cm 20/10/2019 16:45 Not measured Full data
Storage Lake Victoria Murray 25.53 m 20/10/2019 16:45 Not measured 506 GL 20/10/2019 16:45 Not measured 16.1°C 20/10/2019 16:45 135.0 μS/cm 20/10/2019 16:45 Not measured Full data
Weirs Lock 1 Downstream Murray 1.21 m 20/10/2019 16:45 Not measured Not measured 13644.2 ML/d18/10/2019 7:45 Not measured Not measured Not measured Full data
Weirs Lock 1 Upstream Murray 3.21 m 20/10/2019 16:45 Not measured Not measured Not measured 18.8°C 20/10/2019 16:45 179.1 μS/cm 20/10/2019 16:45 Not measured Full data
Weirs Lock 2 Downstream Murray 3.95 m 20/10/2019 16:45 Not measured Not measured Not measured Not measured Not measured Not measured Full data
Weirs Lock 2 Upstream Murray 6.11 m 20/10/2019 16:45 Not measured Not measured Not measured 18.7°C 20/10/2019 16:45 177.0 μS/cm 20/10/2019 16:45 Not measured Full data
Weirs Lock 3 Downstream Murray 6.88 m 20/10/2019 16:45 Not measured Not measured Not measured Not measured Not measured Not measured Full data
Weirs Lock 3 Upstream Murray 9.82 m 20/10/2019 16:45 Not measured Not measured Not measured Not measured Not measured Not measured Full data
Weirs Lock 4 Downstream Murray 11.29 m 20/10/2019 16:45 Not measured Not measured Not measured Not measured Not measured Not measured Full data
Weirs Lock 4 Upstream Murray 13.25 m 20/10/2019 16:45 Not measured Not measured Not measured Not measured Not measured Not measured Full data
Weirs Lock 5 Downstream Murray 13.88 m 20/10/2019 16:45 Not measured Not measured Not measured Not measured Not measured Not measured Full data
Weirs Lock 5 Upstream Murray 16.32 m 20/10/2019 16:45 Not measured Not measured Not measured 19.0°C 20/10/2019 16:45 106.4 μS/cm 20/10/2019 16:45 Not measured Full data
Weirs Lock 6 Downstream Murray 16.98 m 20/10/2019 16:45 Not measured Not measured Not measured Not measured Not measured Not measured Full data
Weirs Lock 6 Upstream Murray 19.28 m 20/10/2019 16:45 Not measured Not measured Not measured 18.8°C 20/10/2019 16:45 98.0 μS/cm 20/10/2019 16:45 Not measured Full data
Weirs Lock 7 Downstream Murray 21.56 m 20/10/2019 16:45 Not measured Not measured Not measured Not measured Not measured Not measured Full data
Weirs Lock 7 Upstream Murray 22.67 m 20/10/2019 16:45 Not measured Not measured Not measured 19.1°C 20/10/2019 16:30 113.7 μS/cm 20/10/2019 16:30 Not measured Full data
Weirs Lock 8 Upstream Murray 25.46 m 20/10/2019 16:45 Not measured Not measured Not measured 19.1°C 20/10/2019 16:45 127.6 μS/cm 20/10/2019 16:45 Not measured Full data
Weirs Lock 9 Downstream Murray 25.71 m 20/10/2019 16:45 Not measured Not measured Not measured Not measured Not measured Not measured Full data
Weirs Lock 9 Upstream Murray 27.4 m 20/10/2019 16:45 Not measured Not measured Not measured 18.8°C 20/10/2019 16:45 101.9 μS/cm 20/10/2019 16:45 Not measured Full data
River Gauge McCoy Bridge Goulburn 1.7 m 20/10/2019 17:45 1333 ML/Day 20/10/2019 17:45 Not measured Not measured 17.4°C 20/10/2019 17:45 56.3 μS/cm 20/10/2019 17:45 Not measured Full data
Storage Menindee Lakes Darling Not measured Not measured 12 GL 18/10/2019 7:45 Not measured Not measured Not measured Not measured Full data
Weirs Mildura Weir downstream Murray 31.48 m 20/10/2019 17:45 Not measured Not measured Not measured 18.8°C 20/10/2019 17:45 49.6 μS/cm 20/10/2019 17:45 Not measured Full data
River Gauge Morgan Downstream Murray Not measured Not measured Not measured 12128.4 ML/d20/10/2019 16:45 Not measured 175.1 μS/cm 20/10/2019 15:45 Not measured Full data
River Gauge Mulwala Canal Murray Not measured Not measured Not measured 558.3 ML/d20/10/2019 8:45 Not measured Not measured Not measured Full data
River Gauge Mundoo Barrage Murray 0.88 m 18/10/2019 7:45 Not measured Not measured Not measured Not measured Not measured Not measured Full data
River Gauge Murray Bridge Murray 0.87 m 20/10/2019 16:45 Not measured Not measured Not measured 18.0°C 20/10/2019 16:45 325.1 μS/cm 20/10/2019 16:45 Not measured Full data
River Gauge Peechelba Ovens 127.08 m 20/10/2019 17:45 1380 ML/Day 20/10/2019 17:45 Not measured Not measured 15.5°C 20/10/2019 17:45 44.8 μS/cm 20/10/2019 17:45 Not measured Full data
River Gauge Pinegrove Murray 1.22 m 20/10/2019 18:00 359 ML/Day 20/10/2019 18:00 Not measured Not measured 14.3°C 20/10/2019 18:00 68.2 μS/cm 20/10/2019 18:00 0.0 mm 20/10/2019 9:00 Full data
River Gauge Redcliffs Murray Not measured Not measured Not measured Not measured Not measured 42.3 μS/cm 20/10/2019 17:45 Not measured Full data
River Gauge Rochester Campaspe 1.81 m 20/10/2019 17:45 147 ML/Day 20/10/2019 17:45 Not measured Not measured 17.0°C 20/10/2019 17:45 614.1 μS/cm 20/10/2019 17:45 0.0 mm 20/10/2019 9:00 Full data
River Gauge Rufus River Murray 21.58 m 18/10/2019 7:45 Not measured Not measured 2034.3 ML/d18/10/2019 7:45 Not measured 126.6 μS/cm 20/10/2019 16:00 Not measured Full data
Weirs Steven's Weir Downstream Edward 2.69 m 20/10/2019 17:45 3183 ML/Day 20/10/2019 17:45 Not measured Not measured 17.7°C 20/10/2019 17:45 45.8 μS/cm 20/10/2019 17:45 Not measured Full data
Weirs Steven's Weir Upstream Edward 4.39 m 20/10/2019 17:45 Not measured Not measured Not measured Not measured Not measured Not measured Full data
River Gauge Stoney Crossing Murray 1.83 m 20/10/2019 17:45 1700 ML/Day 20/10/2019 17:45 Not measured 1680.4 ML/d20/10/2019 7:45 18.5°C 20/10/2019 17:45 74.4 μS/cm 20/10/2019 17:45 Not measured Full data
River Gauge Swan Hill Murray 2.03 m 20/10/2019 17:45 11550 ML/Day 20/10/2019 17:45 Not measured Not measured 17.9°C 20/10/2019 17:45 58.0 μS/cm 20/10/2019 17:45 Not measured Full data
River Gauge Tallandoon Mitta 2.54 m 20/10/2019 17:45 4564 ML/Day 20/10/2019 17:45 Not measured Not measured 12.7°C 20/10/2019 17:45 36.4 μS/cm 20/10/2019 17:45 Not measured Full data
River Gauge Tauwitchere Barrage Murray 0.85 m 20/10/2019 16:45 Not measured Not measured Not measured Not measured Not measured Not measured Full data
River Gauge Tocumwal Murray 2.21 m 20/10/2019 17:45 9983 ML/Day 20/10/2019 17:45 Not measured Not measured 17.8°C 20/10/2019 17:45 43.9 μS/cm 20/10/2019 17:45 Not measured Full data
River Gauge Torrumbarry Headworks Murray 84.72 m 20/10/2019 17:45 Not measured Not measured 1340.2 ML/d20/10/2019 17:45 Not measured Not measured Not measured Full data
Weirs Torrumbarry Weir Downstream Murray 3.2 m 20/10/2019 17:45 10054 ML/Day 20/10/2019 17:45 Not measured Not measured 17.5°C 20/10/2019 17:45 54.5 μS/cm 20/10/2019 17:45 Not measured Full data
Weirs Torrumbarry Weir Upstream Murray 86.05 m 15/10/2019 13:15 Not measured 37 GL 18/10/2019 7:45 Not measured 17.1°C 15/10/2019 7:45 52.0 μS/cm 15/10/2019 11:45 0.0 mm 14/10/2019 9:00 Full data
River Gauge Wakool Canal Wakool 0.44 m 20/10/2019 17:45 Not measured Not measured 93.0 ML/d20/10/2019 8:45 Not measured Not measured Not measured Full data
River Gauge Wakool Junction Murray 4.8 m 17/10/2019 8:45 17310 ML/Day 17/10/2019 8:45 Not measured Not measured 17.8°C 17/10/2019 8:45 59.4 μS/cm 17/10/2019 8:45 Not measured Full data
River Gauge Weir 32 Upstream Darling 1.05 m 20/10/2019 17:45 2 ML/Day 20/10/2019 17:45 Not measured Not measured 19.5°C 20/10/2019 17:45 1422.7 μS/cm 20/10/2019 17:45 Not measured Full data
Weirs Wentworth Weir Murray 28.27 m 20/10/2019 17:45 Not measured Not measured 15724.0 ML/d20/10/2019 8:45 Not measured 99.0 μS/cm 18/10/2019 7:45 0.0 mm 31/01/2019 9:00 Full data
River Gauge Wilcania Darling -0.27 m 20/10/2019 17:45 1 ML/Day 20/10/2019 17:45 Not measured Not measured 19.7°C 20/10/2019 17:45 0.0 μS/cm 20/10/2019 17:45 Not measured Full data
River Gauge Yarrawonga Main Channel Murray 123.18 m 20/10/2019 17:45 Not measured Not measured 263.1 ML/d20/10/2019 17:45 Not measured Not measured Not measured Full data
Weirs Yarrawonga Weir Downstream Murray 1.47 m 20/10/2019 18:00 8604 ML/Day 20/10/2019 18:00 Not measured Not measured 16.8°C 20/10/2019 18:00 41.6 μS/cm 20/10/2019 18:00 Not measured Full data
Weirs Yarrawonga Weir Upstream Murray 124.77 m 20/10/2019 17:45 Not measured Not measured Not measured Not measured Not measured 0.0 mm 20/10/2019 9:00 Full data